Time;durP1;ratioP1;P1;durP2;ratioP2;P2;SDS_P1;SDS_P2;PMS_P1;PMS_P2;Temp;Humidity;BMP_temperature;BMP_pressure;BME280_temperature;BME280_humidity;BME280_pressure;Samples;Min_cycle;Max_cycle;Signal;HPM_P1;HPM_P2
2022/09/29 00:02:01;;;;;;;18.73;13.68;;;;;;;3.57;100.00;153434.09;4948462;28;20042;-81
2022/09/29 00:04:26;;;;;;;22.75;14.13;;;;;;;3.47;100.00;153409.84;4946962;28;20058;-81
2022/09/29 00:06:52;;;;;;;18.88;13.63;;;;;;;3.46;100.00;153408.53;4936998;29;20047;-80
2022/09/29 00:09:17;;;;;;;21.92;15.18;;;;;;;3.54;100.00;153427.69;4955775;28;20031;-82
2022/09/29 00:11:43;;;;;;;22.25;15.93;;;;;;;3.46;100.00;153408.53;4941785;28;20038;-81
2022/09/29 00:14:09;;;;;;;19.02;15.38;;;;;;;3.45;100.00;153406.00;4958374;28;20092;-80
2022/09/29 00:16:35;;;;;;;23.13;15.23;;;;;;;3.38;100.00;153388.13;4945413;28;20524;-80
2022/09/29 00:19:00;;;;;;;19.55;14.93;;;;;;;3.30;100.00;153368.97;4920968;29;20047;-82
2022/09/29 00:21:29;;;;;;;24.83;15.63;;;;;;;3.41;100.00;153394.47;4937105;28;20043;-82
2022/09/29 00:23:55;;;;;;;23.75;14.30;;;;;;;3.41;100.00;153395.78;4937743;29;20067;-80
2022/09/29 00:26:22;;;;;;;21.58;14.73;;;;;;;3.47;100.00;153409.84;4920770;28;20063;-81
2022/09/29 00:28:54;;;;;;;21.60;15.00;;;;;;;3.48;100.00;153412.38;4937417;28;20042;-81
2022/09/29 00:31:20;;;;;;;21.25;14.30;;;;;;;3.46;100.00;153408.53;4938088;28;20042;-82
2022/09/29 00:33:46;;;;;;;20.13;13.55;;;;;;;3.46;100.00;153407.25;4924307;29;20042;-81
2022/09/29 00:36:15;;;;;;;24.67;13.82;;;;;;;3.42;100.00;153398.31;4936830;28;20039;-82
2022/09/29 00:38:42;;;;;;;17.17;12.93;;;;;;;3.41;100.00;153394.47;4933207;29;20105;-82
2022/09/29 00:41:17;;;;;;;19.25;13.77;;;;;;;3.38;100.00;153386.84;4951766;28;20043;-81
2022/09/29 00:43:50;;;;;;;21.50;14.48;;;;;;;3.33;100.00;153374.06;4942296;29;20039;-81
2022/09/29 00:46:21;;;;;;;20.13;14.45;;;;;;;3.34;100.00;153377.91;4927020;28;20031;-79
2022/09/29 00:48:47;;;;;;;21.20;14.05;;;;;;;3.24;100.00;153353.66;4923841;29;20023;-82
2022/09/29 00:51:13;;;;;;;19.95;13.85;;;;;;;3.30;100.00;153368.97;4926648;28;20042;-84
2022/09/29 00:53:41;;;;;;;16.80;13.77;;;;;;;3.29;100.00;153366.38;4944111;29;20512;-81
2022/09/29 00:56:11;;;;;;;23.48;14.60;;;;;;;3.21;100.00;153344.72;4929864;29;20039;-80
2022/09/29 00:58:42;;;;;;;24.17;15.35;;;;;;;3.23;100.00;153349.81;4951233;28;20034;-84
2022/09/29 01:01:09;;;;;;;19.50;14.40;;;;;;;3.20;100.00;153342.16;4928026;29;20105;-81
2022/09/29 01:03:40;;;;;;;18.83;13.95;;;;;;;3.24;100.00;153353.66;4923610;29;20031;-82
2022/09/29 01:06:15;;;;;;;18.98;13.77;;;;;;;3.21;100.00;153345.97;4934549;29;20047;-82
2022/09/29 01:08:46;;;;;;;21.33;14.45;;;;;;;3.19;100.00;153340.88;4956357;28;20509;-80
2022/09/29 01:11:12;;;;;;;19.63;14.27;;;;;;;3.20;100.00;153342.16;4955539;28;20038;-80
2022/09/29 01:13:38;;;;;;;20.63;15.18;;;;;;;3.14;100.00;153328.09;4961735;28;20027;-80
2022/09/29 01:16:04;;;;;;;21.42;14.77;;;;;;;3.13;100.00;153325.56;4922620;29;20051;-81
2022/09/29 01:18:30;;;;;;;20.45;13.20;;;;;;;3.10;100.00;153317.91;4939882;28;20054;-81
2022/09/29 01:21:08;;;;;;;17.38;14.38;;;;;;;3.19;100.00;153339.63;4926539;28;20098;-82
2022/09/29 01:24:22;;;;;;;17.10;13.73;;;;;;;3.18;100.00;153337.03;4940156;28;20049;-80
2022/09/29 01:27:19;;;;;;;18.80;13.95;;;;;;;3.21;100.00;153345.97;4932720;29;20039;-81
2022/09/29 01:29:57;;;;;;;19.83;14.00;;;;;;;3.19;100.00;153339.63;4968278;28;20065;-81
2022/09/29 01:32:50;;;;;;;20.23;14.00;;;;;;;3.11;100.00;153320.47;4925071;28;20043;-81
2022/09/29 01:35:19;;;;;;;22.88;13.82;;;;;;;3.23;100.00;153351.09;4939306;28;20589;-82
2022/09/29 01:38:06;;;;;;;19.40;14.07;;;;;;;3.15;100.00;153329.41;4973451;28;20481;-80
2022/09/29 01:40:50;;;;;;;24.17;13.77;;;;;;;3.25;100.00;153354.94;4934398;28;20047;-80
2022/09/29 01:43:22;;;;;;;20.88;14.63;;;;;;;3.25;100.00;153356.19;4960718;28;20043;-81
2022/09/29 01:46:08;;;;;;;21.33;15.02;;;;;;;3.30;100.00;153368.97;4948267;28;20031;-83
2022/09/29 01:48:48;;;;;;;21.95;14.73;;;;;;;3.30;100.00;153368.97;4958330;28;20046;-81
2022/09/29 01:51:18;;;;;;;23.92;14.48;;;;;;;3.25;100.00;153356.19;4942071;28;20046;-81
2022/09/29 01:53:52;;;;;;;22.35;13.57;;;;;;;3.17;100.00;153334.53;4964119;28;20027;-82
2022/09/29 01:56:27;;;;;;;20.15;13.77;;;;;;;3.18;100.00;153338.31;4951133;28;20135;-82
2022/09/29 01:58:56;;;;;;;27.42;14.30;;;;;;;3.17;100.00;153335.78;4945214;28;20030;-82
2022/09/29 02:01:26;;;;;;;23.48;13.57;;;;;;;3.17;100.00;153335.78;4947174;28;20082;-82
2022/09/29 02:04:07;;;;;;;18.85;13.65;;;;;;;3.16;100.00;153333.22;4944662;29;20039;-81
2022/09/29 02:06:39;;;;;;;19.95;14.18;;;;;;;3.23;100.00;153349.81;4929427;28;20490;-81
2022/09/29 02:09:10;;;;;;;18.98;14.05;;;;;;;3.20;100.00;153342.16;4955761;28;20162;-81
2022/09/29 02:11:40;;;;;;;22.42;15.05;;;;;;;3.22;100.00;153348.56;4955307;28;20130;-80
2022/09/29 02:14:24;;;;;;;20.77;15.32;;;;;;;3.23;100.00;153351.09;4954418;28;20059;-83
2022/09/29 02:17:06;;;;;;;22.75;15.20;;;;;;;3.26;100.00;153357.50;4952270;28;20217;-81
2022/09/29 02:19:37;;;;;;;23.10;15.95;;;;;;;3.34;100.00;153377.91;4926859;28;20710;-82
2022/09/29 02:22:03;;;;;;;21.25;14.45;;;;;;;3.39;100.00;153390.69;4946031;29;20050;-81
2022/09/29 02:24:29;;;;;;;23.95;16.15;;;;;;;3.45;100.00;153404.72;4947911;28;20032;-81
2022/09/29 02:26:55;;;;;;;24.27;16.55;;;;;;;3.53;100.00;153425.16;4959411;28;20113;-81
2022/09/29 02:29:21;;;;;;;22.75;15.02;;;;;;;3.59;100.00;153440.47;4940932;28;20062;-80
2022/09/29 02:31:47;;;;;;;24.90;15.18;;;;;;;3.63;100.00;153449.41;4941146;29;20064;-82
2022/09/29 02:34:17;;;;;;;24.42;15.75;;;;;;;3.55;100.00;153429.00;4946562;28;20039;-82
2022/09/29 02:37:02;;;;;;;20.30;15.00;;;;;;;3.49;100.00;153414.94;4948257;28;20035;-81
2022/09/29 02:39:52;;;;;;;25.10;15.95;;;;;;;3.48;100.00;153413.69;4963139;28;20059;-82
2022/09/29 02:42:30;;;;;;;19.25;14.57;;;;;;;3.41;100.00;153394.47;4956388;28;20085;-82
2022/09/29 02:45:21;;;;;;;29.65;16.83;;;;;;;3.40;100.00;153393.22;4929266;29;20105;-82
2022/09/29 02:48:09;;;;;;;22.52;15.50;;;;;;;3.38;100.00;153388.13;4943556;28;20043;-81
2022/09/29 02:50:50;;;;;;;23.08;15.30;;;;;;;3.33;100.00;153375.34;4944201;28;20058;-80
2022/09/29 02:53:53;;;;;;;22.08;14.98;;;;;;;3.32;100.00;153372.81;4955729;28;20039;-81
2022/09/29 02:56:37;;;;;;;;;;;;;;;3.28;100.00;153362.59;4956070;28;20070;-81
2022/09/29 02:59:08;;;;;;;19.73;13.60;;;;;;;3.18;100.00;153337.03;4983885;28;19930;-81
2022/09/29 03:01:45;;;;;;;24.20;14.18;;;;;;;3.13;100.00;153325.56;4948310;28;20043;-82
2022/09/29 03:04:10;;;;;;;23.65;14.98;;;;;;;3.11;100.00;153320.47;4939452;28;20035;-79
2022/09/29 03:06:36;;;;;;;17.77;13.60;;;;;;;3.07;100.00;153310.22;4934869;28;20519;-79
2022/09/29 03:09:01;;;;;;;21.65;14.75;;;;;;;3.02;100.00;153297.50;4951198;28;20084;-81
2022/09/29 03:11:27;;;;;;;20.38;13.93;;;;;;;2.96;100.00;153282.16;4944542;28;20483;-83
2022/09/29 03:13:54;;;;;;;19.33;13.88;;;;;;;2.92;100.00;153273.25;4947749;29;20035;-81
2022/09/29 03:16:19;;;;;;;23.38;13.48;;;;;;;2.94;100.00;153278.34;4957397;28;20103;-81
2022/09/29 03:18:45;;;;;;;20.70;14.10;;;;;;;2.90;100.00;153268.09;4970175;28;20069;-81
2022/09/29 03:21:11;;;;;;;25.23;14.40;;;;;;;2.91;100.00;153270.69;4960067;28;20031;-80
2022/09/29 03:23:36;;;;;;;20.83;13.23;;;;;;;2.93;100.00;153275.78;4940737;29;20095;-81
2022/09/29 03:26:02;;;;;;;20.52;13.05;;;;;;;2.95;100.00;153280.88;4943349;29;20075;-80
2022/09/29 03:28:27;;;;;;;18.13;13.02;;;;;;;2.97;100.00;153284.72;4955028;28;20035;-82
2022/09/29 03:30:54;;;;;;;21.25;13.75;;;;;;;2.93;100.00;153275.78;4949297;28;20150;-81
2022/09/29 03:33:20;;;;;;;18.40;13.25;;;;;;;2.99;100.00;153291.09;4942248;28;20034;-80
2022/09/29 03:35:46;;;;;;;22.58;15.15;;;;;;;3.04;100.00;153303.84;4973384;28;20058;-81
2022/09/29 03:38:11;;;;;;;23.05;14.85;;;;;;;2.97;100.00;153285.97;4928611;28;20036;-80
2022/09/29 03:40:37;;;;;;;20.88;14.70;;;;;;;2.95;100.00;153280.88;4931294;28;20053;-82
2022/09/29 03:43:03;;;;;;;19.05;13.60;;;;;;;2.99;100.00;153291.09;4945121;29;20045;-81
2022/09/29 03:45:28;;;;;;;19.73;14.48;;;;;;;3.00;100.00;153293.66;4924782;28;20609;-81
2022/09/29 03:47:54;;;;;;;19.42;14.45;;;;;;;3.00;100.00;153292.41;4960434;28;20110;-82
2022/09/29 03:50:19;;;;;;;20.40;13.48;;;;;;;2.92;100.00;153274.53;4938903;28;20111;-82
2022/09/29 03:52:45;;;;;;;21.05;12.80;;;;;;;2.84;100.00;153252.81;4932944;28;20034;-82
2022/09/29 03:55:11;;;;;;;23.42;13.57;;;;;;;2.96;100.00;153283.47;4943318;28;20050;-78
2022/09/29 03:57:36;;;;;;;19.15;13.52;;;;;;;2.91;100.00;153270.69;4924714;29;20121;-81
2022/09/29 04:00:03;;;;;;;17.05;13.23;;;;;;;3.03;100.00;153301.34;4962568;28;20047;-82
2022/09/29 04:02:34;;;;;;;19.48;13.00;;;;;;;3.02;100.00;153297.50;4954211;28;20449;-81
2022/09/29 04:05:00;;;;;;;19.20;13.32;;;;;;;2.99;100.00;153291.09;4949759;28;20027;-81
2022/09/29 04:07:26;;;;;;;16.63;13.00;;;;;;;2.97;100.00;153284.72;4961643;28;20046;-82
2022/09/29 04:09:51;;;;;;;16.73;13.23;;;;;;;3.01;100.00;153294.91;4962739;28;20023;-82
2022/09/29 04:12:17;;;;;;;20.15;13.95;;;;;;;3.02;100.00;153298.75;4942679;28;20055;-80
2022/09/29 04:14:42;;;;;;;19.85;14.10;;;;;;;2.97;100.00;153284.72;4942088;28;20035;-81
2022/09/29 04:17:08;;;;;;;18.55;13.02;;;;;;;2.99;100.00;153289.81;4964422;28;20110;-80
2022/09/29 04:19:33;;;;;;;18.48;12.80;;;;;;;2.95;100.00;153279.63;4950800;28;20027;-80
2022/09/29 04:21:59;;;;;;;17.27;12.38;;;;;;;2.95;100.00;153279.63;4965615;28;20037;-83
2022/09/29 04:24:25;;;;;;;17.23;12.57;;;;;;;2.90;100.00;153268.09;4940148;28;20030;-81
2022/09/29 04:26:50;;;;;;;17.15;12.82;;;;;;;2.91;100.00;153271.94;4945747;29;20038;-82
2022/09/29 04:29:16;;;;;;;20.40;13.15;;;;;;;2.83;100.00;153251.53;4938017;28;20086;-83
2022/09/29 04:31:41;;;;;;;18.55;13.10;;;;;;;2.80;100.00;153243.88;4941538;28;20034;-81
2022/09/29 04:34:07;;;;;;;15.23;12.45;;;;;;;2.83;100.00;153250.28;4950182;28;20023;-81
2022/09/29 04:36:32;;;;;;;18.05;13.63;;;;;;;2.85;100.00;153255.38;4935650;28;20082;-83
2022/09/29 04:38:58;;;;;;;20.15;13.75;;;;;;;2.91;100.00;153270.69;4944343;29;20027;-81
2022/09/29 04:41:24;;;;;;;22.40;15.23;;;;;;;2.97;100.00;153285.97;4941121;28;20125;-81
2022/09/29 04:43:49;;;;;;;26.65;16.05;;;;;;;3.08;100.00;153312.78;4944750;29;20027;-82
2022/09/29 04:46:15;;;;;;;26.63;16.10;;;;;;;3.04;100.00;153303.84;4944840;28;20429;-82
2022/09/29 04:48:40;;;;;;;22.20;14.88;;;;;;;3.18;100.00;153337.03;4963491;28;20031;-82
2022/09/29 04:51:06;;;;;;;24.92;15.82;;;;;;;3.15;100.00;153330.69;4946739;29;20039;-82
2022/09/29 04:53:32;;;;;;;21.23;15.23;;;;;;;3.18;100.00;153337.03;4927584;28;20169;-82
2022/09/29 04:55:58;;;;;;;25.40;16.10;;;;;;;3.06;100.00;153307.69;4939555;29;20067;-81
2022/09/29 04:58:23;;;;;;;24.73;16.17;;;;;;;3.06;100.00;153307.69;4922288;28;20051;-81
2022/09/29 05:00:49;;;;;;;23.02;15.05;;;;;;;3.04;100.00;153303.84;4939952;29;20118;-81
2022/09/29 05:03:14;;;;;;;24.63;15.80;;;;;;;2.97;100.00;153285.97;4969449;28;20059;-80
2022/09/29 05:05:40;;;;;;;22.88;15.73;;;;;;;2.94;100.00;153278.34;4929364;28;20058;-81
2022/09/29 05:08:06;;;;;;;20.30;14.02;;;;;;;2.98;100.00;153288.56;4946502;28;20042;-80
2022/09/29 05:10:31;;;;;;;23.90;15.65;;;;;;;3.00;100.00;153292.41;4945119;28;20126;-82
2022/09/29 05:12:57;;;;;;;27.58;16.30;;;;;;;3.00;100.00;153293.66;4945809;28;20027;-82
2022/09/29 05:15:23;;;;;;;23.33;15.63;;;;;;;3.03;100.00;153300.03;4951955;28;20470;-81
2022/09/29 05:17:49;;;;;;;26.35;16.98;;;;;;;3.11;100.00;153321.75;4923498;29;20063;-81
2022/09/29 05:20:15;;;;;;;23.67;16.23;;;;;;;3.16;100.00;153331.94;4949620;28;20071;-80
2022/09/29 05:22:41;;;;;;;25.20;16.90;;;;;;;3.24;100.00;153352.34;4955042;28;20057;-80
2022/09/29 05:25:07;;;;;;;24.92;17.25;;;;;;;3.30;100.00;153367.72;4945352;29;20039;-81
2022/09/29 05:27:35;;;;;;;27.10;18.10;;;;;;;3.29;100.00;153366.38;4955859;28;20027;-81
2022/09/29 05:30:01;;;;;;;27.17;17.00;;;;;;;3.26;100.00;153358.75;4939157;29;20070;-81
2022/09/29 05:32:26;;;;;;;24.08;17.25;;;;;;;3.31;100.00;153371.53;4977301;28;20390;-82
2022/09/29 05:34:52;;;;;;;24.73;17.50;;;;;;;3.30;100.00;153368.97;4941725;29;20027;-81
2022/09/29 05:37:17;;;;;;;28.40;18.70;;;;;;;3.28;100.00;153363.88;4960494;28;20038;-82
2022/09/29 05:39:43;;;;;;;29.17;16.77;;;;;;;3.36;100.00;153381.75;4958182;29;20091;-82
2022/09/29 05:42:10;;;;;;;28.05;17.48;;;;;;;3.43;100.00;153399.63;4969148;28;20034;-82
2022/09/29 05:44:36;;;;;;;30.02;18.95;;;;;;;3.42;100.00;153398.31;4970783;28;20034;-82
2022/09/29 05:47:02;;;;;;;32.85;19.00;;;;;;;3.49;100.00;153416.19;4966350;28;20047;-82
2022/09/29 05:49:30;;;;;;;31.77;19.40;;;;;;;3.57;100.00;153434.09;4940786;28;20134;-82
2022/09/29 05:51:56;;;;;;;31.70;19.42;;;;;;;3.60;100.00;153441.72;4947140;28;20031;-82
2022/09/29 05:54:22;;;;;;;28.95;18.50;;;;;;;3.77;100.00;153483.88;4962061;28;20042;-83
2022/09/29 05:56:48;;;;;;;37.50;22.08;;;;;;;3.99;100.00;153538.78;4964742;28;20035;-83
2022/09/29 05:59:14;;;;;;;38.25;22.23;;;;;;;4.06;100.00;153557.94;4956916;28;20316;-82
2022/09/29 06:01:40;;;;;;;35.78;22.38;;;;;;;4.20;100.00;153592.47;4954566;29;20031;-82
2022/09/29 06:04:05;;;;;;;40.70;23.00;;;;;;;4.41;100.00;153644.84;4951448;29;20130;-82
2022/09/29 06:06:31;;;;;;;38.15;22.40;;;;;;;4.53;100.00;153674.22;4928947;29;20079;-82
2022/09/29 06:08:58;;;;;;;34.15;21.48;;;;;;;4.61;100.00;153694.63;4948516;28;20035;-82
2022/09/29 06:11:26;;;;;;;32.63;20.65;;;;;;;4.60;100.00;153692.13;4945664;29;20514;-83
2022/09/29 06:13:53;;;;;;;38.55;22.13;;;;;;;4.83;100.00;153748.34;4957648;28;20116;-82
2022/09/29 06:16:22;;;;;;;33.42;20.92;;;;;;;4.99;100.00;153787.94;4956136;28;20031;-82
2022/09/29 06:18:47;;;;;;;32.63;20.98;;;;;;;5.01;100.00;153794.38;4957923;29;20046;-83
2022/09/29 06:21:17;;;;;;;28.25;18.80;;;;;;;5.04;100.00;153800.72;4944657;28;20038;-81
2022/09/29 06:23:42;;;;;;;27.58;19.40;;;;;;;5.30;100.00;153864.66;4953983;28;20035;-82
2022/09/29 06:26:12;;;;;;;32.83;20.98;;;;;;;5.45;100.00;153903.03;4945790;28;20042;-83
2022/09/29 06:28:38;;;;;;;32.17;21.65;;;;;;;5.55;100.00;153928.56;4943120;28;20642;-82
2022/09/29 06:31:07;;;;;;;33.78;21.25;;;;;;;5.67;100.00;153958.00;4934430;29;20162;-82
2022/09/29 06:33:35;;;;;;;29.25;20.40;;;;;;;5.72;100.00;153969.50;4953804;29;20449;-82
2022/09/29 06:38:56;;;;;;;27.60;19.70;;;;;;;5.77;100.00;153983.56;4957069;28;20042;-82
2022/09/29 06:41:22;;;;;;;27.02;19.13;;;;;;;5.85;100.00;154002.75;4945749;28;20051;-82
2022/09/29 06:43:47;;;;;;;33.17;19.08;;;;;;;5.96;100.00;154030.94;4950649;29;20067;-82
2022/09/29 06:46:13;;;;;;;28.98;20.63;;;;;;;6.12;100.00;154069.31;4934449;29;20043;-82
2022/09/29 06:48:39;;;;;;;30.17;21.15;;;;;;;6.20;100.00;154091.06;4949837;28;20050;-83
2022/09/29 06:51:08;;;;;;;28.90;20.85;;;;;;;6.29;100.00;154112.84;4942253;29;20120;-84
2022/09/29 06:53:35;;;;;;;29.63;21.35;;;;;;;6.47;100.00;154156.31;4953263;28;20398;-83
2022/09/29 06:56:01;;;;;;;30.20;21.67;;;;;;;6.55;100.00;154178.03;4945792;29;20040;-82
2022/09/29 06:58:27;;;;;;;33.53;21.67;;;;;;;6.62;100.00;154194.69;4943994;29;20063;-81
2022/09/29 07:00:54;;;;;;;26.98;20.48;;;;;;;6.82;100.00;154245.88;4926070;29;20040;-83
2022/09/29 07:03:20;;;;;;;30.10;20.83;;;;;;;6.79;100.00;154238.19;4952448;28;20042;-81
2022/09/29 07:05:46;;;;;;;30.02;20.50;;;;;;;6.90;100.00;154265.09;4939061;29;20067;-82
2022/09/29 07:08:11;;;;;;;26.58;20.63;;;;;;;6.97;100.00;154281.75;4965539;28;20043;-82
2022/09/29 07:10:37;;;;;;;25.17;19.73;;;;;;;7.08;100.00;154309.84;4936346;29;20043;-82
2022/09/29 07:13:04;;;;;;;27.55;20.83;;;;;;;7.16;100.00;154330.38;4923284;29;20059;-82
2022/09/29 07:15:32;;;;;;;27.85;20.27;;;;;;;7.26;100.00;154353.41;4962650;28;20031;-82
2022/09/29 07:17:59;;;;;;;24.83;19.25;;;;;;;7.27;100.00;154355.94;4968279;28;20042;-82
2022/09/29 07:20:25;;;;;;;26.45;18.77;;;;;;;7.28;100.00;154358.53;4938705;28;20042;-80
2022/09/29 07:22:52;;;;;;;26.48;19.88;;;;;;;7.28;100.00;154358.53;4962221;28;20034;-79
2022/09/29 07:25:17;;;;;;;27.92;19.88;;;;;;;7.29;100.00;154362.38;4941090;28;20119;-80
2022/09/29 07:27:43;;;;;;;29.25;21.33;;;;;;;7.36;100.00;154379.00;4928125;29;20055;-79
2022/09/29 07:30:09;;;;;;;27.20;20.55;;;;;;;7.46;100.00;154403.31;4961919;28;20030;-80
2022/09/29 07:32:35;;;;;;;26.45;20.10;;;;;;;7.48;100.00;154409.75;4942137;28;20497;-79
2022/09/29 07:35:01;;;;;;;28.60;20.95;;;;;;;7.56;100.00;154428.94;4946441;28;20035;-80
2022/09/29 07:37:27;;;;;;;26.88;20.23;;;;;;;7.70;100.00;154463.50;4960987;28;20097;-81
2022/09/29 07:39:53;;;;;;;28.15;20.95;;;;;;;7.74;100.00;154475.06;4961046;28;20477;-81
2022/09/29 07:42:20;;;;;;;26.45;19.23;;;;;;;7.81;100.00;154491.66;4946515;28;20106;-82
2022/09/29 07:44:54;;;;;;;26.90;19.98;;;;;;;8.05;100.00;154550.59;4960332;28;20108;-81
2022/09/29 07:47:19;;;;;;;27.95;19.92;;;;;;;8.17;100.00;154582.63;4947395;28;20035;-80
2022/09/29 07:49:45;;;;;;;25.17;18.85;;;;;;;8.10;100.00;154563.38;4946148;29;20031;-79
2022/09/29 07:52:12;;;;;;;25.58;19.75;;;;;;;8.34;100.00;154624.91;4953836;28;20078;-80
2022/09/29 07:54:38;;;;;;;23.48;19.50;;;;;;;8.34;100.00;154624.91;4932682;28;20121;-80
2022/09/29 07:57:04;;;;;;;27.35;20.08;;;;;;;8.37;100.00;154631.31;4964711;28;20089;-82
2022/09/29 07:59:29;;;;;;;25.10;19.58;;;;;;;8.38;100.00;154635.16;4944519;28;20039;-81
2022/09/29 08:01:55;;;;;;;25.17;19.92;;;;;;;8.37;100.00;154631.31;4945627;29;20062;-80
2022/09/29 08:04:21;;;;;;;24.50;19.63;;;;;;;8.48;100.00;154659.53;4927005;28;20039;-79
2022/09/29 08:06:47;;;;;;;26.13;19.65;;;;;;;8.50;100.00;154663.38;4936643;29;20062;-80
2022/09/29 08:09:13;;;;;;;25.02;19.83;;;;;;;8.47;100.00;154655.69;4960200;28;20559;-78
2022/09/29 08:11:41;;;;;;;23.30;18.77;;;;;;;8.65;100.00;154700.56;4942705;29;20659;-81
2022/09/29 08:14:09;;;;;;;25.85;19.50;;;;;;;8.66;100.00;154704.34;4919194;29;20047;-78
2022/09/29 08:16:36;;;;;;;27.65;19.48;;;;;;;8.72;100.00;154719.78;4943618;28;20042;-78
2022/09/29 08:19:03;;;;;;;25.33;19.30;;;;;;;8.75;100.00;154727.44;4967287;28;20059;-80
2022/09/29 08:21:30;;;;;;;25.77;19.95;;;;;;;8.88;100.00;154758.19;4942680;28;20048;-80
2022/09/29 08:23:56;;;;;;;25.98;20.27;;;;;;;8.91;100.00;154765.88;4937818;29;20031;-80
2022/09/29 08:26:22;;;;;;;25.15;19.10;;;;;;;8.95;100.00;154777.41;4938500;28;20035;-79
2022/09/29 08:28:48;;;;;;;26.33;19.23;;;;;;;9.11;100.00;154815.88;4927324;28;20059;-80
2022/09/29 08:31:21;;;;;;;24.33;18.67;;;;;;;9.18;100.00;154832.53;4920545;28;20108;-81
2022/09/29 08:33:48;;;;;;;26.53;19.03;;;;;;;9.37;100.00;154879.97;4927985;28;20038;-80
2022/09/29 08:36:15;;;;;;;25.13;18.67;;;;;;;9.49;100.00;154912.03;4941023;28;20043;-80
2022/09/29 08:38:42;;;;;;;23.38;18.42;;;;;;;9.49;100.00;154912.03;4920304;29;20087;-79
2022/09/29 08:41:45;;;;;;;27.17;17.90;;;;;;;9.50;100.00;154914.56;4957298;28;20041;-81
2022/09/29 08:44:22;;;;;;;;;;;;;;;9.64;100.00;154949.16;4941873;28;20405;-80
2022/09/29 08:46:56;;;;;;;23.45;17.77;;;;;;;9.70;100.00;154964.59;4946061;28;19979;-80
2022/09/29 08:49:25;;;;;;;22.63;17.38;;;;;;;9.83;100.00;154995.34;4941388;28;20043;-82
2022/09/29 08:51:54;;;;;;;22.60;17.23;;;;;;;10.07;100.00;155055.63;4949712;28;20052;-77
2022/09/29 08:54:30;;;;;;;20.33;15.70;;;;;;;10.19;100.00;155085.09;4940224;28;20043;-78
2022/09/29 08:56:58;;;;;;;23.17;16.55;;;;;;;10.33;100.00;155121.09;4938607;29;20045;-79
2022/09/29 08:59:26;;;;;;;20.02;15.85;;;;;;;10.49;100.00;155160.84;4959454;28;20103;-80
2022/09/29 09:02:18;;;;;;;20.75;15.48;;;;;;;10.50;100.00;155163.44;4965421;28;20039;-78
2022/09/29 09:05:05;;;;;;;19.92;15.40;;;;;;;10.65;100.00;155200.63;4932543;29;20118;-80
2022/09/29 09:07:49;;;;;;;18.83;14.65;;;;;;;10.82;100.00;155244.25;4929201;28;20593;-79
2022/09/29 09:10:46;;;;;;;15.75;13.68;;;;;;;11.07;100.00;155307.09;4963336;28;20027;-79
2022/09/29 09:13:11;;;;;;;20.50;14.00;;;;;;;11.15;100.00;155326.41;4965314;28;20485;-77
2022/09/29 09:16:08;;;;;;;16.85;13.43;;;;;;;11.29;100.00;155362.31;4956794;29;20066;-79
2022/09/29 09:19:08;;;;;;;18.35;13.30;;;;;;;11.46;100.00;155404.66;4931014;28;20046;-80
2022/09/29 09:21:41;;;;;;;17.30;13.75;;;;;;;11.51;100.00;155416.25;4954530;28;20139;-80
2022/09/29 09:24:28;;;;;;;15.38;12.20;;;;;;;11.70;100.00;155463.75;4969902;28;20053;-81
2022/09/29 09:26:57;;;;;;;15.10;12.30;;;;;;;11.82;100.00;155494.53;4940479;28;20086;-78
2022/09/29 09:29:41;;;;;;;16.20;12.90;;;;;;;12.00;100.00;155538.28;4967927;28;20059;-79
2022/09/29 09:32:11;;;;;;;17.33;12.90;;;;;;;12.30;100.00;155612.72;4933635;29;20095;-79
2022/09/29 09:34:43;;;;;;;16.73;13.35;;;;;;;12.44;100.00;155648.69;4978796;28;20109;-80
2022/09/29 09:37:16;;;;;;;15.82;12.80;;;;;;;12.53;100.00;155670.56;4933016;29;20059;-80
2022/09/29 09:39:59;;;;;;;17.42;13.18;;;;;;;12.60;100.00;155688.50;4942072;29;20047;-77
2022/09/29 09:42:32;;;;;;;19.95;14.50;;;;;;;12.60;100.00;155688.50;4943593;28;20047;-79
2022/09/29 09:45:04;;;;;;;18.10;14.65;;;;;;;12.64;100.00;155698.81;4961831;28;20039;-80
2022/09/29 09:47:36;;;;;;;20.42;14.52;;;;;;;12.69;100.00;155710.34;4943398;28;20059;-80
2022/09/29 09:50:12;;;;;;;20.17;15.60;;;;;;;12.77;100.00;155732.22;4952632;28;20030;-79
2022/09/29 09:52:40;;;;;;;19.27;15.27;;;;;;;12.84;100.00;155750.16;4941666;29;20039;-79
2022/09/29 09:55:13;;;;;;;18.80;14.57;;;;;;;12.79;100.00;155736.03;4960925;28;20035;-79
2022/09/29 09:58:06;;;;;;;17.83;13.98;;;;;;;12.73;100.00;155720.63;4964103;28;20031;-80
2022/09/29 10:00:40;;;;;;;16.65;12.90;;;;;;;12.71;100.00;155716.75;4940419;28;20457;-77
2022/09/29 10:03:08;;;;;;;13.85;10.68;;;;;;;12.76;100.00;155728.34;4966190;28;20098;-79
2022/09/29 10:05:38;;;;;;;11.95;8.73;;;;;;;12.64;100.00;155698.81;4946461;28;20031;-79
2022/09/29 10:08:08;;;;;;;10.68;8.43;;;;;;;12.64;100.00;155700.09;4920589;29;20045;-79
2022/09/29 10:10:34;;;;;;;11.32;8.13;;;;;;;12.70;100.00;155714.22;4932121;28;20035;-80
2022/09/29 10:13:05;;;;;;;11.07;7.85;;;;;;;12.59;100.00;155687.22;4961337;28;20030;-81
2022/09/29 10:15:44;;;;;;;11.45;8.85;;;;;;;12.56;100.00;155679.50;4944040;28;20047;-78
2022/09/29 10:18:29;;;;;;;12.02;9.02;;;;;;;12.47;100.00;155656.44;4962505;28;20042;-80
2022/09/29 10:20:55;;;;;;;11.18;9.00;;;;;;;12.43;100.00;155646.09;4946745;29;20093;-81
2022/09/29 10:23:28;;;;;;;11.65;8.82;;;;;;;12.51;100.00;155665.38;4961343;28;20128;-80
2022/09/29 10:26:03;;;;;;;12.40;8.95;;;;;;;12.58;100.00;155684.69;4939376;29;20102;-81
2022/09/29 10:28:52;;;;;;;12.13;8.65;;;;;;;12.43;100.00;155647.44;4964703;28;20040;-80
2022/09/29 10:31:21;;;;;;;11.50;7.80;;;;;;;12.59;100.00;155685.97;4961198;28;20137;-81
2022/09/29 10:34:14;;;;;;;10.60;8.10;;;;;;;12.69;100.00;155711.63;4939572;29;20089;-79
2022/09/29 10:36:55;;;;;;;9.93;7.72;;;;;;;12.69;100.00;155710.34;4933130;28;20042;-79
2022/09/29 10:39:41;;;;;;;10.93;8.05;;;;;;;12.82;100.00;155745.03;4921418;28;20425;-79
2022/09/29 10:42:26;;;;;;;13.40;8.18;;;;;;;12.96;100.00;155779.75;4960073;28;20516;-79
2022/09/29 10:44:59;;;;;;;9.43;7.50;;;;;;;13.23;100.00;155847.81;4961103;28;20114;-80
2022/09/29 10:47:25;;;;;;;10.60;6.90;;;;;;;13.50;100.00;155913.41;4956921;28;20451;-81
2022/09/29 10:50:16;;;;;;;12.48;6.50;;;;;;;13.72;100.00;155968.72;4947594;29;20050;-80
2022/09/29 10:52:44;;;;;;;7.88;6.18;;;;;;;13.68;99.25;155959.72;4943800;29;20146;-81
2022/09/29 10:55:17;;;;;;;8.25;6.40;;;;;;;13.68;99.71;155958.44;4948868;29;20070;-80
2022/09/29 10:57:44;;;;;;;9.20;6.55;;;;;;;13.57;100.00;155931.44;4943622;29;20041;-80
2022/09/29 11:00:25;;;;;;;11.70;7.97;;;;;;;13.13;99.54;155820.81;4934144;28;20042;-81
2022/09/29 11:02:52;;;;;;;14.88;8.48;;;;;;;12.92;100.00;155769.47;4936294;29;20118;-81
2022/09/29 11:05:24;;;;;;;14.52;8.45;;;;;;;12.80;100.00;155738.63;4953978;28;20122;-81
2022/09/29 11:07:51;;;;;;;10.47;8.17;;;;;;;12.64;100.00;155698.81;4957604;28;20134;-81
2022/09/29 11:10:36;;;;;;;11.15;7.90;;;;;;;12.57;100.00;155682.09;4929348;28;20289;-81
2022/09/29 11:13:33;;;;;;;10.90;8.02;;;;;;;12.41;100.00;155640.97;4969904;28;20031;-81
2022/09/29 11:16:14;;;;;;;9.32;7.13;;;;;;;12.30;100.00;155612.72;4964611;28;20030;-81
2022/09/29 11:18:42;;;;;;;12.13;7.35;;;;;;;12.25;100.00;155601.19;4961205;28;20035;-83
2022/09/29 11:21:20;;;;;;;12.68;8.07;;;;;;;12.18;100.00;155584.47;4928734;29;20050;-81
2022/09/29 11:24:11;;;;;;;10.65;7.80;;;;;;;12.05;100.00;155552.41;4970783;28;20109;-82
2022/09/29 11:26:42;;;;;;;11.95;7.88;;;;;;;12.02;100.00;155544.69;4929770;28;20038;-80
2022/09/29 11:29:21;;;;;;;10.20;8.05;;;;;;;11.98;100.00;155534.41;4941398;28;20046;-80